Corbin Foss — WDB5265 — position and weather

sailwx.info

Track history (hours):
 
Tides and Currents Weather Stations Pressure Air Temp Water Temp Dewpoint Dewpoint Depression Visibility Wind Speed Wind Dir Waves Ship Positions

Corbin Foss

Owner: Foss International, Inc, Seattle, WA. More information available from US FCC via Universal Licensing System and Coast Guard Vessel Documentation Center.

Last reported at 2017-Nov-30 14:03 UTC. Time now 2017-Dec-14 02:37 UTC.
Position N 26°44' W 079°46'.
Warning: this ship's position is 13 days out of date.

Type: Tow > 200 m length. MMSI: 366902220.

Date/timePositionNaut miles runAvg speedWind from/ knotsBaromVisibWave heightAir tempDewpointWater temp
2017-Nov-30 14:03N 26°44' W 079°46'011.6
2017-Nov-30 14:01N 26°44' W 079°46'611.6
2017-Nov-30 13:30N 26°38' W 079°47'611.6
2017-Nov-30 13:01N 26°32' W 079°48'611.3
2017-Nov-30 12:30N 26°26' W 079°50'510.9
2017-Nov-30 12:00N 26°22' W 079°53'510.6
2017-Nov-30 11:30N 26°18' W 079°56'510.0
2017-Nov-30 11:00N 26°13' W 079°58'510.3
2017-Nov-30 10:30N 26°08' W 079°58'510.3
2017-Nov-30 10:00N 26°02' W 079°58'510.2
2017-Nov-30 09:30N 25°57' W 079°58'510.1
2017-Nov-30 09:00N 25°52' W 079°58'510.2
2017-Nov-30 08:31N 25°47' W 079°58'510.2
2017-Nov-30 08:01N 25°42' W 079°58'510.2
2017-Nov-30 07:31N 25°37' W 079°57'510.5
2017-Nov-30 07:00N 25°32' W 079°55'510.5
2017-Nov-30 06:31N 25°27' W 079°53'  
Track history (hours):
 
Tides and Currents Weather Stations Pressure Air Temp Water Temp Dewpoint Dewpoint Depression Visibility Wind Speed Wind Dir Waves Ship Positions

Corbin Foss

Owner: Foss International, Inc, Seattle, WA. More information available from US FCC via Universal Licensing System and Coast Guard Vessel Documentation Center.

Last reported at 2017-Nov-30 14:03 UTC. Time now 2017-Dec-14 02:37 UTC.
Position N 26°44' W 079°46'.
Warning: this ship's position is 13 days out of date.

Type: Tow > 200 m length. MMSI: 366902220.

Date/timePositionNaut miles runAvg speedWind from/ knotsBaromVisibWave heightAir tempDewpointWater temp
2017-Nov-30 14:03N 26°44' W 079°46'011.6
2017-Nov-30 14:01N 26°44' W 079°46'611.6
2017-Nov-30 13:30N 26°38' W 079°47'611.6
2017-Nov-30 13:01N 26°32' W 079°48'611.3
2017-Nov-30 12:30N 26°26' W 079°50'510.9
2017-Nov-30 12:00N 26°22' W 079°53'510.6
2017-Nov-30 11:30N 26°18' W 079°56'510.0
2017-Nov-30 11:00N 26°13' W 079°58'510.3
2017-Nov-30 10:30N 26°08' W 079°58'510.3
2017-Nov-30 10:00N 26°02' W 079°58'510.2
2017-Nov-30 09:30N 25°57' W 079°58'510.1
2017-Nov-30 09:00N 25°52' W 079°58'510.2
2017-Nov-30 08:31N 25°47' W 079°58'510.2
2017-Nov-30 08:01N 25°42' W 079°58'510.2
2017-Nov-30 07:31N 25°37' W 079°57'510.5
2017-Nov-30 07:00N 25°32' W 079°55'510.5
2017-Nov-30 06:31N 25°27' W 079°53'  

Dump ship's entire track history